createdAt,value
2018-04-25T00:01:19.480Z,101327.12
2018-04-25T00:03:47.063Z,101327.12
2018-04-25T00:06:43.125Z,101338.91
2018-04-25T00:09:10.833Z,101335.91
2018-04-25T00:11:41.117Z,101334.60
2018-04-25T00:14:13.182Z,101339.36
2018-04-25T00:16:40.743Z,101342.84
2018-04-25T00:19:10.104Z,101346.73
2018-04-25T00:21:37.709Z,101345.45
2018-04-25T00:29:56.884Z,101346.33
2018-04-25T00:35:00.684Z,101345.05
2018-04-25T00:37:28.313Z,101346.84
2018-04-25T00:39:55.938Z,101354.25
2018-04-25T00:50:27.546Z,101345.02
2018-04-25T00:52:55.091Z,101350.21
2018-04-25T00:55:23.322Z,101350.64
2018-04-25T00:57:50.973Z,101346.67
2018-04-25T01:09:00.420Z,101347.95
2018-04-25T01:11:28.883Z,101346.20
2018-04-25T01:13:56.545Z,101344.03
2018-04-25T01:24:50.485Z,101354.88
2018-04-25T01:27:18.056Z,101348.81
2018-04-25T01:29:46.617Z,101353.62
2018-04-25T01:32:14.263Z,101359.77
2018-04-25T01:43:20.823Z,101350.05
2018-04-25T01:49:07.503Z,101353.70
2018-04-25T02:00:40.025Z,101334.38
2018-04-25T02:03:07.135Z,101347.49
2018-04-25T02:05:34.751Z,101349.74
2018-04-25T02:08:05.123Z,101353.31
2018-04-25T02:13:16.910Z,101361.80
2018-04-25T02:15:48.769Z,101361.45
2018-04-25T02:18:17.578Z,101354.59
2018-04-25T02:20:45.183Z,101351.22
2018-04-25T02:23:12.801Z,101347.36
2018-04-25T02:25:44.879Z,101347.43
2018-04-25T02:28:16.975Z,101343.62
2018-04-25T02:30:46.136Z,101342.78
2018-04-25T02:33:17.640Z,101345.05
2018-04-25T02:35:45.303Z,101343.41
2018-04-25T02:38:12.871Z,101350.36
2018-04-25T02:40:40.423Z,101347.42
2018-04-25T02:43:10.374Z,101347.92
2018-04-25T02:48:17.953Z,101348.02
2018-04-25T02:50:47.118Z,101353.74
2018-04-25T02:53:14.658Z,101355.49
2018-04-25T02:55:42.217Z,101356.38
2018-04-25T02:58:09.850Z,101360.36
2018-04-25T03:00:40.931Z,101363.84
2018-04-25T03:03:12.730Z,101366.52
2018-04-25T03:05:44.705Z,101362.20
2018-04-25T03:08:14.198Z,101367.86
2018-04-25T03:10:41.832Z,101368.78
2018-04-25T03:13:10.347Z,101369.23
2018-04-25T03:15:37.850Z,101384.44
2018-04-25T03:18:06.445Z,101377.50
2018-04-25T03:20:34.654Z,101381.47
2018-04-25T03:23:02.316Z,101373.23
2018-04-25T03:25:29.872Z,101377.17
2018-04-25T03:27:57.931Z,101374.18
2018-04-25T03:30:25.467Z,101380.26
2018-04-25T03:32:53.035Z,101382.86
2018-04-25T03:35:21.573Z,101380.70
2018-04-25T03:37:57.205Z,101389.36
2018-04-25T03:40:28.603Z,101394.56
2018-04-25T03:42:56.211Z,101402.73
2018-04-25T03:45:24.419Z,101397.89
2018-04-25T03:47:52.058Z,101396.98
2018-04-25T03:50:19.606Z,101394.30
2018-04-25T03:52:48.953Z,101401.59
2018-04-25T03:55:17.165Z,101395.06
2018-04-25T03:57:49.992Z,101403.22
2018-04-25T04:00:17.620Z,101401.50
2018-04-25T04:02:45.140Z,101400.17
2018-04-25T04:05:13.638Z,101398.89
2018-04-25T04:07:41.477Z,101404.61
2018-04-25T04:10:10.419Z,101404.20
2018-04-25T04:12:41.824Z,101398.19
2018-04-25T04:15:10.591Z,101408.16
2018-04-25T04:17:38.162Z,101398.55
2018-04-25T04:20:05.658Z,101403.67
2018-04-25T04:22:33.207Z,101403.64
2018-04-25T04:25:00.788Z,101408.34
2018-04-25T04:27:30.962Z,101403.53
2018-04-25T04:29:58.607Z,101394.35
2018-04-25T04:32:26.594Z,101398.23
2018-04-25T04:34:54.876Z,101392.11
2018-04-25T04:37:23.008Z,101383.81
2018-04-25T04:39:50.537Z,101397.64
2018-04-25T04:42:18.067Z,101396.31
2018-04-25T04:44:46.743Z,101395.80
2018-04-25T04:47:15.642Z,101399.28
2018-04-25T04:49:45.684Z,101393.63
2018-04-25T04:52:13.203Z,101394.07
2018-04-25T04:54:41.764Z,101402.29
2018-04-25T04:57:09.335Z,101398.37
2018-04-25T04:59:38.175Z,101406.60
2018-04-25T05:02:08.984Z,101411.76
2018-04-25T05:04:40.956Z,101407.00
2018-04-25T05:07:13.073Z,101410.95
2018-04-25T05:09:40.607Z,101417.45
2018-04-25T05:12:08.132Z,101419.22
2018-04-25T05:14:36.357Z,101420.59
2018-04-25T05:17:03.990Z,101420.19
2018-04-25T05:19:37.913Z,101420.26
2018-04-25T05:24:45.175Z,101421.25
2018-04-25T05:27:12.770Z,101414.77
2018-04-25T05:29:40.353Z,101416.56
2018-04-25T05:32:07.967Z,101418.75
2018-04-25T05:34:37.950Z,101421.32
2018-04-25T05:39:46.744Z,101419.84
2018-04-25T05:44:52.963Z,101432.29
2018-04-25T05:47:21.491Z,101428.30
2018-04-25T05:49:49.059Z,101427.78
2018-04-25T05:52:18.221Z,101437.32
2018-04-25T05:54:46.670Z,101434.27
2018-04-25T05:57:22.432Z,101429.53
2018-04-25T05:59:53.840Z,101438.22
2018-04-25T06:02:21.435Z,101442.99
2018-04-25T06:04:48.964Z,101440.03
2018-04-25T06:07:18.465Z,101442.28
2018-04-25T06:09:49.376Z,101450.46
2018-04-25T06:12:17.813Z,101453.11
2018-04-25T06:14:54.790Z,101444.47
2018-04-25T06:17:22.585Z,101440.55
2018-04-25T06:19:50.216Z,101446.56
2018-04-25T06:22:17.775Z,101449.95
2018-04-25T06:24:45.331Z,101456.41
2018-04-25T06:27:16.103Z,101460.20
2018-04-25T06:29:46.635Z,101457.94
2018-04-25T06:32:18.614Z,101452.64
2018-04-25T06:34:46.848Z,101459.05
2018-04-25T06:37:14.407Z,101463.23
2018-04-25T06:39:41.961Z,101458.80
2018-04-25T06:42:10.331Z,101449.59
2018-04-25T06:44:41.353Z,101448.20
2018-04-25T06:47:14.002Z,101458.93
2018-04-25T06:49:42.515Z,101461.48
2018-04-25T06:52:10.158Z,101466.97
2018-04-25T06:54:37.743Z,101461.23
2018-04-25T06:57:05.263Z,101471.53
2018-04-25T06:59:32.807Z,101462.70
2018-04-25T07:02:03.353Z,101467.33
2018-04-25T07:04:33.861Z,101473.97
2018-04-25T07:07:02.738Z,101477.61
2018-04-25T07:09:32.851Z,101476.60
2018-04-25T07:12:00.529Z,101473.94
2018-04-25T07:14:28.090Z,101479.99
2018-04-25T07:16:55.622Z,101479.55
2018-04-25T07:19:24.840Z,101477.31
2018-04-25T07:21:55.079Z,101475.55
2018-04-25T07:24:29.195Z,101482.91
2018-04-25T07:26:56.763Z,101483.77
2018-04-25T07:29:24.357Z,101481.02
2018-04-25T07:31:52.994Z,101485.24
2018-04-25T07:34:20.635Z,101485.97
2018-04-25T07:36:49.640Z,101492.31
2018-04-25T07:44:40.896Z,101495.65
2018-04-25T07:47:08.446Z,101493.75
2018-04-25T07:49:36.073Z,101510.66
2018-04-25T07:52:03.788Z,101503.19
2018-04-25T07:54:33.903Z,101492.62
2018-04-25T07:57:13.929Z,101495.12
2018-04-25T08:02:45.112Z,101512.67
2018-04-25T08:05:12.777Z,101500.78
2018-04-25T08:07:40.420Z,101499.81
2018-04-25T08:19:28.190Z,101504.17
2018-04-25T08:21:55.817Z,101506.94
2018-04-25T08:24:23.351Z,101499.56
2018-04-25T08:26:51.088Z,101501.31
2018-04-25T08:35:01.973Z,101493.52
2018-04-25T08:37:29.571Z,101505.69
2018-04-25T08:39:57.103Z,101503.58
2018-04-25T08:42:24.696Z,101511.42
2018-04-25T08:44:54.754Z,101504.83
2018-04-25T08:47:25.123Z,101523.75
2018-04-25T08:49:56.967Z,101520.89
2018-04-25T08:52:28.826Z,101524.55
2018-04-25T08:54:56.352Z,101527.14
2018-04-25T08:57:23.931Z,101535.98
2018-04-25T08:59:51.523Z,101529.25
2018-04-25T09:02:19.116Z,101538.70
2018-04-25T09:04:46.663Z,101528.80
2018-04-25T09:07:17.132Z,101538.47
2018-04-25T09:09:44.671Z,101524.52
2018-04-25T09:12:12.187Z,101533.70
2018-04-25T09:14:39.742Z,101527.66
2018-04-25T09:17:07.305Z,101531.56
2018-04-25T09:19:37.093Z,101529.70
2018-04-25T09:22:07.497Z,101518.81
2018-04-25T09:24:37.885Z,101525.74
2018-04-25T09:27:05.512Z,101536.59
2018-04-25T09:29:33.110Z,101528.77
2018-04-25T09:32:00.649Z,101527.09
2018-04-25T09:34:28.302Z,101540.48
2018-04-25T09:36:56.473Z,101554.61
2018-04-25T09:39:25.670Z,101552.66
2018-04-25T09:41:57.060Z,101554.28
2018-04-25T09:44:24.679Z,101578.12
2018-04-25T09:46:52.223Z,101571.20
2018-04-25T09:49:19.739Z,101552.95
2018-04-25T09:51:47.344Z,101551.25
2018-04-25T09:54:14.915Z,101556.96
2018-04-25T09:56:42.536Z,101542.61
2018-04-25T09:59:10.906Z,101551.02
2018-04-25T10:04:11.951Z,101549.10
2018-04-25T10:06:39.472Z,101540.62
2018-04-25T10:09:07.038Z,101543.51
2018-04-25T10:19:48.167Z,101541.72
2018-04-25T10:22:15.784Z,101537.11
2018-04-25T10:24:43.383Z,101544.16
2018-04-25T10:27:10.969Z,101541.23
2018-04-25T10:29:38.555Z,101522.39
2018-04-25T10:32:17.292Z,101539.53
2018-04-25T10:37:20.685Z,101545.92
2018-04-25T10:39:48.316Z,101538.09
2018-04-25T10:42:15.885Z,101558.18
2018-04-25T10:44:45.142Z,101543.48
2018-04-25T10:47:17.119Z,101539.67
2018-04-25T10:49:48.928Z,101536.06
2018-04-25T10:52:22.168Z,101539.21
2018-04-25T10:54:49.789Z,101536.14
2018-04-25T10:57:17.415Z,101543.69
2018-04-25T10:59:45.082Z,101547.35
2018-04-25T11:05:02.665Z,101543.80
2018-04-25T11:07:35.069Z,101557.12
2018-04-25T11:10:09.011Z,101557.75
2018-04-25T11:12:36.710Z,101559.23
2018-04-25T11:15:04.251Z,101544.41
2018-04-25T11:17:32.198Z,101547.72
2018-04-25T11:28:39.563Z,101546.11
2018-04-25T11:31:07.131Z,101546.61
2018-04-25T11:33:34.920Z,101545.95
2018-04-25T11:45:11.118Z,101554.53
2018-04-25T11:47:38.732Z,101541.89
2018-04-25T11:50:06.327Z,101550.86
2018-04-25T11:52:34.010Z,101549.36
2018-04-25T11:55:05.210Z,101555.09
2018-04-25T11:57:38.226Z,101567.46
2018-04-25T12:00:06.523Z,101552.83
2018-04-25T12:02:34.255Z,101548.63
2018-04-25T12:05:01.901Z,101544.34
2018-04-25T12:07:29.350Z,101549.75
2018-04-25T12:09:56.985Z,101550.49
2018-04-25T12:12:26.964Z,101554.93
2018-04-25T12:19:58.227Z,101546.59
2018-04-25T12:22:25.768Z,101568.77
2018-04-25T12:24:53.418Z,101545.63
2018-04-25T12:27:21.131Z,101542.20
2018-04-25T12:29:53.051Z,101545.09
2018-04-25T12:32:23.199Z,101542.81
2018-04-25T12:34:56.554Z,101553.10
2018-04-25T12:37:25.079Z,101538.39
2018-04-25T12:39:52.583Z,101537.21
2018-04-25T12:42:21.852Z,101542.37
2018-04-25T12:47:27.056Z,101557.25
2018-04-25T12:49:59.456Z,101542.89
2018-04-25T12:52:29.805Z,101550.20
2018-04-25T12:54:57.359Z,101542.91
2018-04-25T12:57:24.993Z,101547.67
2018-04-25T12:59:52.674Z,101546.72
2018-04-25T13:02:21.274Z,101551.11
2018-04-25T13:04:50.771Z,101541.97
2018-04-25T13:07:21.306Z,101555.37
2018-04-25T13:09:50.286Z,101535.16
2018-04-25T13:12:17.928Z,101537.28
2018-04-25T13:14:45.484Z,101543.81
2018-04-25T13:17:13.061Z,101551.87
2018-04-25T13:22:30.856Z,101559.52
2018-04-25T13:27:36.708Z,101537.72
2018-04-25T13:30:04.267Z,101546.67
2018-04-25T13:32:31.927Z,101542.05
2018-04-25T13:34:59.565Z,101525.22
2018-04-25T13:46:08.283Z,101556.03
2018-04-25T13:48:35.880Z,101549.56
2018-04-25T13:51:03.414Z,101554.30
2018-04-25T14:03:06.799Z,101558.28
2018-04-25T14:05:34.343Z,101568.07
2018-04-25T14:08:02.005Z,101557.19
2018-04-25T14:10:30.877Z,101584.52
2018-04-25T14:21:36.945Z,101565.45
2018-04-25T14:24:04.514Z,101562.05
2018-04-25T14:26:32.115Z,101561.75
2018-04-25T14:32:11.065Z,101560.48
2018-04-25T14:34:39.926Z,101567.44
2018-04-25T14:37:08.137Z,101558.80
2018-04-25T14:39:35.850Z,101558.78
2018-04-25T14:42:03.442Z,101549.91
2018-04-25T14:44:31.075Z,101555.19
2018-04-25T14:47:01.165Z,101554.53
2018-04-25T14:49:31.211Z,101548.73
2018-04-25T14:51:59.298Z,101553.91
2018-04-25T14:54:28.046Z,101549.77
2018-04-25T14:56:55.583Z,101554.77
2018-04-25T14:59:23.143Z,101551.13
2018-04-25T15:01:51.879Z,101543.69
2018-04-25T15:04:22.682Z,101542.37
2018-04-25T15:06:53.876Z,101543.14
2018-04-25T15:12:24.319Z,101541.81
2018-04-25T15:14:51.985Z,101528.89
2018-04-25T15:17:19.541Z,101539.62
2018-04-25T15:28:04.345Z,101544.52
2018-04-25T15:30:31.918Z,101602.58
2018-04-25T15:32:59.482Z,101539.16
2018-04-25T15:35:27.224Z,101554.18
2018-04-25T16:04:16.788Z,101554.88
2018-04-25T16:06:44.613Z,101552.13
2018-04-25T16:09:12.236Z,101554.89
2018-04-25T16:17:53.954Z,101568.38
2018-04-25T16:20:21.551Z,101568.78
2018-04-25T16:22:49.189Z,101590.19
2018-04-25T16:25:16.696Z,101570.73
2018-04-25T16:33:18.150Z,101574.95
2018-04-25T16:35:46.776Z,101580.08
2018-04-25T16:38:14.352Z,101567.41
2018-04-25T16:40:41.901Z,101583.19
2018-04-25T16:43:09.497Z,101591.52
2018-04-25T16:45:38.919Z,101571.20
2018-04-25T16:48:07.460Z,101579.16
2018-04-25T16:50:38.152Z,101571.42
2018-04-25T16:53:06.882Z,101574.23
2018-04-25T16:55:34.426Z,101582.99
2018-04-25T16:58:01.974Z,101575.84
2018-04-25T17:00:29.612Z,101578.98
2018-04-25T17:03:02.204Z,101593.44
2018-04-25T17:05:30.963Z,101581.66
2018-04-25T17:07:59.365Z,101592.91
2018-04-25T17:10:31.037Z,101584.83
2018-04-25T17:12:58.560Z,101592.47
2018-04-25T17:15:26.131Z,101602.13
2018-04-25T17:17:53.695Z,101600.37
2018-04-25T17:20:26.131Z,101615.03
2018-04-25T17:22:57.392Z,101601.91
2018-04-25T17:25:26.449Z,101598.78
2018-04-25T17:27:55.205Z,101616.63
2018-04-25T17:30:22.858Z,101606.89
2018-04-25T17:32:50.399Z,101600.83
2018-04-25T17:35:18.075Z,101600.03
2018-04-25T17:37:49.423Z,101603.08
2018-04-25T17:40:19.175Z,101598.75
2018-04-25T17:42:47.231Z,101605.98
2018-04-25T17:45:14.904Z,101603.95
2018-04-25T17:47:42.422Z,101607.09
2018-04-25T17:50:09.997Z,101588.61
2018-04-25T17:52:37.543Z,101591.99
2018-04-25T17:55:07.195Z,101597.16
2018-04-25T17:57:37.880Z,101598.28
2018-04-25T18:00:06.506Z,101598.77
2018-04-25T18:05:12.019Z,101608.67
2018-04-25T18:07:39.590Z,101602.28
2018-04-25T18:10:07.175Z,101598.52
2018-04-25T18:12:39.248Z,101595.97
2018-04-25T18:15:06.939Z,101594.02
2018-04-25T18:17:39.294Z,101596.27
2018-04-25T18:20:07.057Z,101601.98
2018-04-25T18:22:34.563Z,101594.55
2018-04-25T18:25:02.166Z,101598.80
2018-04-25T18:27:29.719Z,101597.75
2018-04-25T18:29:58.202Z,101610.23
2018-04-25T18:32:26.691Z,101605.66
2018-04-25T18:34:58.075Z,101597.30
2018-04-25T18:37:25.745Z,101601.02
2018-04-25T18:39:53.262Z,101616.34
2018-04-25T18:42:20.783Z,101598.70
2018-04-25T18:44:48.342Z,101604.98
2018-04-25T18:47:16.726Z,101608.44
2018-04-25T18:49:45.041Z,101600.64
2018-04-25T18:52:15.199Z,101609.95
2018-04-25T18:54:43.904Z,101613.36
2018-04-25T18:57:31.219Z,101603.91
2018-04-25T18:59:58.778Z,101623.94
2018-04-25T19:02:26.331Z,101623.11
2018-04-25T19:04:57.884Z,101625.50
2018-04-25T19:07:26.417Z,101629.63
2018-04-25T19:09:55.380Z,101629.97
2018-04-25T19:12:22.977Z,101628.88
2018-04-25T19:14:50.551Z,101626.63
2018-04-25T19:17:18.088Z,101631.83
2018-04-25T19:19:45.647Z,101633.42
2018-04-25T19:22:15.293Z,101639.18
2018-04-25T19:24:42.913Z,101637.44
2018-04-25T19:27:15.033Z,101642.36
2018-04-25T19:29:43.539Z,101643.31
2018-04-25T19:32:11.088Z,101637.31
2018-04-25T19:34:38.652Z,101632.78
2018-04-25T19:37:06.151Z,101646.01
2018-04-25T19:39:34.614Z,101643.17
2018-04-25T19:42:02.922Z,101649.03
2018-04-25T19:44:31.380Z,101659.45
2018-04-25T19:46:58.918Z,101652.70
2018-04-25T19:49:26.504Z,101653.23
2018-04-25T19:51:54.015Z,101662.89
2018-04-25T19:54:22.196Z,101663.87
2018-04-25T19:56:50.534Z,101662.73
2018-04-25T19:59:19.015Z,101666.70
2018-04-25T20:01:49.112Z,101672.41
2018-04-25T20:04:16.675Z,101679.88
2018-04-25T20:06:44.227Z,101685.19
2018-04-25T20:09:11.791Z,101687.84
2018-04-25T20:11:39.334Z,101688.81
2018-04-25T20:14:06.906Z,101701.02
2018-04-25T20:16:35.479Z,101703.31
2018-04-25T20:19:03.172Z,101704.17
2018-04-25T20:21:30.688Z,101706.52
2018-04-25T20:23:58.222Z,101719.55
2018-04-25T20:26:25.839Z,101719.13
2018-04-25T20:28:53.364Z,101725.66
2018-04-25T20:31:24.441Z,101729.98
2018-04-25T20:33:53.456Z,101729.56
2018-04-25T20:36:22.017Z,101729.12
2018-04-25T20:38:49.468Z,101740.87
2018-04-25T20:41:17.023Z,101734.25
2018-04-25T20:43:44.799Z,101735.04
2018-04-25T20:46:12.322Z,101738.32
2018-04-25T20:48:42.484Z,101742.20
2018-04-25T20:51:10.871Z,101733.12
2018-04-25T20:53:39.147Z,101743.62
2018-04-25T20:56:06.683Z,101743.90
2018-04-25T20:58:34.268Z,101753.52
2018-04-25T21:01:01.727Z,101744.91
2018-04-25T21:03:29.288Z,101757.36
2018-04-25T21:05:59.396Z,101749.54
2018-04-25T21:08:26.964Z,101749.50
2018-04-25T21:10:57.475Z,101752.92
2018-04-25T21:13:25.028Z,101753.86
2018-04-25T21:15:52.527Z,101759.08
2018-04-25T21:18:20.060Z,101766.02
2018-04-25T21:20:47.613Z,101751.23
2018-04-25T21:23:15.221Z,101754.91
2018-04-25T21:25:43.709Z,101766.14
2018-04-25T21:28:16.132Z,101748.84
2018-04-25T21:30:44.346Z,101761.86
2018-04-25T21:33:11.902Z,101752.76
2018-04-25T21:35:39.430Z,101738.06
2018-04-25T21:38:06.987Z,101755.99
2018-04-25T21:40:37.150Z,101763.03
2018-04-25T21:43:07.240Z,101753.56
2018-04-25T21:45:34.879Z,101756.75
2018-04-25T21:48:04.827Z,101753.80
2018-04-25T21:50:32.327Z,101767.81
2018-04-25T21:52:59.850Z,101767.88
2018-04-25T21:55:27.465Z,101756.27
2018-04-25T21:57:55.084Z,101762.84
2018-04-25T22:00:23.476Z,101765.05
2018-04-25T22:02:51.067Z,101758.59
2018-04-25T22:05:18.943Z,101758.55
2018-04-25T22:07:46.511Z,101762.00
2018-04-25T22:10:14.040Z,101762.00
2018-04-25T22:12:41.558Z,101768.92
2018-04-25T22:15:10.079Z,101762.02
2018-04-25T22:17:38.778Z,101753.75
2018-04-25T22:20:07.043Z,101769.81
2018-04-25T22:22:34.598Z,101761.11
2018-04-25T22:25:02.124Z,101762.06
2018-04-25T22:27:29.651Z,101760.77
2018-04-25T22:29:57.223Z,101762.97
2018-04-25T22:32:25.900Z,101772.15
2018-04-25T22:34:58.355Z,101757.48
2018-04-25T22:37:27.247Z,101749.73
2018-04-25T22:39:54.821Z,101747.59
2018-04-25T22:42:22.363Z,101749.48
2018-04-25T22:44:49.867Z,101758.97
2018-04-25T22:47:18.507Z,101750.30
2018-04-25T22:49:47.056Z,101746.03
2018-04-25T22:52:17.399Z,101773.48
2018-04-25T22:54:47.445Z,101758.78
2018-04-25T22:57:15.010Z,101759.66
2018-04-25T22:59:42.571Z,101757.06
2018-04-25T23:02:10.115Z,101757.17
2018-04-25T23:04:37.636Z,101755.90
2018-04-25T23:07:11.911Z,101759.34
2018-04-25T23:09:42.216Z,101778.05
2018-04-25T23:12:10.825Z,101754.32
2018-04-25T23:14:38.315Z,101749.58
2018-04-25T23:17:11.324Z,101758.25
2018-04-25T23:19:38.822Z,101766.06
2018-04-25T23:22:06.369Z,101762.23
2018-04-25T23:24:35.044Z,101771.41
2018-04-25T23:27:05.338Z,101764.92
2018-04-25T23:29:34.158Z,101759.79
2018-04-25T23:32:01.763Z,101767.59
2018-04-25T23:34:29.274Z,101784.02
2018-04-25T23:36:56.839Z,101782.78
2018-04-25T23:39:24.363Z,101777.59
2018-04-25T23:41:53.607Z,101786.27
2018-04-25T23:44:22.088Z,101777.65
2018-04-25T23:46:50.504Z,101773.34
2018-04-25T23:49:18.080Z,101783.38
2018-04-25T23:51:45.683Z,101781.21
2018-04-25T23:54:13.191Z,101790.36
2018-04-25T23:56:40.755Z,101787.37
2018-04-25T23:59:09.043Z,101787.02
